Time;durP1;ratioP1;P1;durP2;ratioP2;P2;SDS_P1;SDS_P2;PMS_P1;PMS_P2;Temp;Humidity;BMP_temperature;BMP_pressure;BME280_temperature;BME280_humidity;BME280_pressure;Samples;Min_cycle;Max_cycle;Signal;HPM_P1;HPM_P2
2023/04/02 00:01:38;;;;;;;0.13;0.13;;;4.40;99.90;;;;;;5023672;28;20476;-75
2023/04/02 00:04:10;;;;;;;0.10;0.10;;;4.20;99.90;;;;;;5022954;28;20025;-75
2023/04/02 00:06:43;;;;;;;0.10;0.10;;;4.30;99.90;;;;;;5026101;28;20025;-75
2023/04/02 00:09:12;;;;;;;0.10;0.10;;;4.20;99.90;;;;;;5025268;28;20083;-75
2023/04/02 00:11:44;;;;;;;0.10;0.10;;;4.20;99.90;;;;;;5026210;28;20029;-75
2023/04/02 00:14:33;;;;;;;0.10;0.10;;;4.20;99.90;;;;;;5024460;28;20109;-75
2023/04/02 00:17:03;;;;;;;0.17;0.17;;;4.10;99.90;;;;;;5007000;28;20167;-75
2023/04/02 00:19:35;;;;;;;0.10;0.10;;;4.10;99.90;;;;;;5025615;28;20029;-75
2023/04/02 00:22:04;;;;;;;0.10;0.10;;;4.10;99.90;;;;;;5026892;28;20021;-75
2023/04/02 00:24:32;;;;;;;0.10;0.10;;;4.10;99.90;;;;;;5005772;28;20029;-74
2023/04/02 00:26:59;;;;;;;0.10;0.10;;;4.10;99.90;;;;;;5005531;28;20025;-77
2023/04/02 00:29:24;;;;;;;0.10;0.10;;;4.10;99.90;;;;;;5024653;28;20083;-75
2023/04/02 00:31:52;;;;;;;0.10;0.10;;;4.10;99.90;;;;;;5023893;28;20025;-76
2023/04/02 00:34:26;;;;;;;0.10;0.10;;;3.70;99.90;;;;;;5006299;28;20030;-75
2023/04/02 00:36:52;;;;;;;;;;;4.20;99.90;;;;;;5025726;28;20649;-75
2023/04/02 00:39:38;;;;;;;0.00;0.00;;;4.20;99.90;;;;;;5024099;28;20054;-76
2023/04/02 00:42:04;;;;;;;4.05;3.78;;;;;;;;;;5024353;28;20018;-75
2023/04/02 00:44:42;;;;;;;0.10;0.10;;;4.20;99.90;;;;;;5007452;28;20049;-75
2023/04/02 00:47:19;;;;;;;0.55;0.55;;;4.20;99.90;;;;;;5028794;28;20068;-75
2023/04/02 00:49:45;;;;;;;0.10;0.10;;;4.30;99.90;;;;;;5028039;28;20227;-75
2023/04/02 00:52:15;;;;;;;6.53;6.22;;;4.30;99.90;;;;;;5029311;28;20033;-75
2023/04/02 00:54:50;;;;;;;0.10;0.10;;;4.30;99.90;;;;;;5027030;28;20030;-75
2023/04/02 00:57:24;;;;;;;0.10;0.10;;;4.30;99.90;;;;;;5004361;28;20141;-75
2023/04/02 00:59:58;;;;;;;0.20;0.20;;;4.40;99.90;;;;;;5022614;28;20030;-75
2023/04/02 01:02:32;;;;;;;0.00;0.00;;;4.40;99.90;;;;;;5021998;28;20025;-75
2023/04/02 01:05:13;;;;;;;0.10;0.10;;;4.40;99.90;;;;;;5004634;28;20053;-76
2023/04/02 01:08:12;;;;;;;0.10;0.10;;;4.40;99.90;;;;;;5021828;28;20033;-75
2023/04/02 01:11:03;;;;;;;0.00;0.00;;;4.50;99.90;;;;;;5023501;28;20025;-75
2023/04/02 01:13:59;;;;;;;0.95;0.95;;;4.40;99.90;;;;;;5022256;28;20206;-76
2023/04/02 01:16:52;;;;;;;0.10;0.10;;;4.30;99.90;;;;;;5021933;28;20049;-76
2023/04/02 01:19:18;;;;;;;0.10;0.10;;;4.30;99.90;;;;;;5022733;28;20515;-74
2023/04/02 01:22:17;;;;;;;0.10;0.10;;;4.30;99.90;;;;;;5022392;28;20038;-74
2023/04/02 01:24:43;;;;;;;0.10;0.10;;;4.20;99.90;;;;;;5022455;28;20029;-74
2023/04/02 01:27:23;;;;;;;0.10;0.10;;;4.10;99.90;;;;;;5023490;28;20029;-74
2023/04/02 01:29:55;;;;;;;0.10;0.10;;;4.10;99.90;;;;;;5022373;28;20041;-74
2023/04/02 01:32:24;;;;;;;0.10;0.10;;;4.00;99.90;;;;;;5022549;28;20033;-76
2023/04/02 01:34:51;;;;;;;0.10;0.10;;;4.00;99.90;;;;;;5020441;28;20053;-74
2023/04/02 01:37:43;;;;;;;0.10;0.10;;;3.70;99.90;;;;;;5021153;28;20088;-74
2023/04/02 01:40:45;;;;;;;0.10;0.10;;;4.00;99.90;;;;;;5020810;28;20253;-74
2023/04/02 01:43:16;;;;;;;0.50;0.50;;;3.90;99.90;;;;;;5022530;28;20207;-76
2023/04/02 01:45:42;;;;;;;0.10;0.10;;;4.00;99.90;;;;;;5021528;28;20555;-76
2023/04/02 01:48:23;;;;;;;0.10;0.10;;;4.00;99.90;;;;;;5022159;28;20021;-74
2023/04/02 01:50:53;;;;;;;0.10;0.10;;;3.90;99.90;;;;;;5020874;28;20041;-76
2023/04/02 01:53:22;;;;;;;0.10;0.10;;;3.90;99.90;;;;;;5020944;28;20319;-74
2023/04/02 01:55:52;;;;;;;0.10;0.10;;;3.90;99.90;;;;;;5020619;28;20021;-76
2023/04/02 01:58:24;;;;;;;0.10;0.10;;;3.90;99.90;;;;;;5020740;28;20424;-76
2023/04/02 02:00:52;;;;;;;0.10;0.10;;;4.00;99.90;;;;;;5021528;28;20423;-76
2023/04/02 02:03:20;;;;;;;1.77;1.70;;;5.50;99.90;;;;;;5020735;28;20029;-74
2023/04/02 02:05:46;;;;;;;0.10;0.10;;;4.00;99.90;;;;;;5020790;28;20026;-74
2023/04/02 02:08:49;;;;;;;0.10;0.10;;;4.00;99.90;;;;;;5020513;28;20496;-74
2023/04/02 02:11:19;;;;;;;0.10;0.10;;;4.10;99.90;;;;;;4940273;29;20260;-74
2023/04/02 02:13:53;;;;;;;0.10;0.10;;;3.70;99.90;;;;;;4939155;29;20063;-74
2023/04/02 02:16:20;;;;;;;0.10;0.10;;;4.10;99.90;;;;;;4939783;29;20604;-74
2023/04/02 02:18:51;;;;;;;0.10;0.10;;;4.10;99.90;;;;;;4939774;29;20078;-74
2023/04/02 02:21:35;;;;;;;0.10;0.10;;;4.20;99.90;;;;;;4940670;29;20603;-74
2023/04/02 02:24:03;;;;;;;0.10;0.10;;;4.20;99.90;;;;;;4942076;29;20055;-73
2023/04/02 02:26:32;;;;;;;0.10;0.10;;;4.20;99.90;;;;;;4942719;29;20766;-74
2023/04/02 02:29:00;;;;;;;3.50;3.38;;;4.10;99.90;;;;;;4941226;29;20113;-74
2023/04/02 02:31:32;;;;;;;0.28;0.28;;;4.10;99.90;;;;;;4939860;29;20035;-74
2023/04/02 02:34:07;;;;;;;0.10;0.10;;;4.10;99.90;;;;;;4938543;29;20066;-74
2023/04/02 02:37:20;;;;;;;0.10;0.10;;;4.00;99.90;;;;;;4939584;29;20364;-73
2023/04/02 02:39:50;;;;;;;0.10;0.10;;;4.00;99.90;;;;;;4920360;29;20439;-74
2023/04/02 02:42:19;;;;;;;0.10;0.10;;;4.00;99.90;;;;;;4921846;29;20028;-76
2023/04/02 02:44:48;;;;;;;0.10;0.10;;;4.10;99.90;;;;;;4921261;29;20095;-74
2023/04/02 02:47:29;;;;;;;0.10;0.10;;;4.10;99.90;;;;;;4929823;28;20026;-76
2023/04/02 02:49:59;;;;;;;0.10;0.10;;;4.20;99.90;;;;;;4982179;28;20313;-78
2023/04/02 02:52:31;;;;;;;0.10;0.10;;;4.20;99.90;;;;;;4963235;28;20092;-76
2023/04/02 02:55:09;;;;;;;0.57;0.57;;;4.20;99.90;;;;;;4980020;28;20061;-74
2023/04/02 02:57:43;;;;;;;0.10;0.10;;;4.00;99.90;;;;;;4981921;28;20031;-76
2023/04/02 03:00:12;;;;;;;;;;;3.90;99.90;;;;;;4986573;28;20100;-75
2023/04/02 03:02:40;;;;;;;1.27;1.27;;;3.80;99.90;;;;;;4988667;28;19941;-76
2023/04/02 03:05:06;;;;;;;0.10;0.10;;;3.70;99.90;;;;;;4991752;28;20026;-76
2023/04/02 03:07:33;;;;;;;0.10;0.10;;;3.70;99.90;;;;;;4991804;28;20041;-76
2023/04/02 03:10:05;;;;;;;0.10;0.10;;;3.60;99.90;;;;;;4991614;28;20062;-76
2023/04/02 03:12:48;;;;;;;0.10;0.10;;;3.60;99.90;;;;;;4987493;28;20178;-77
2023/04/02 03:15:37;;;;;;;0.20;0.20;;;3.60;99.90;;;;;;4982477;28;20113;-76
2023/04/02 03:18:09;;;;;;;0.10;0.10;;;3.60;99.90;;;;;;5025590;28;20036;-76
2023/04/02 03:20:50;;;;;;;0.20;0.20;;;3.50;99.90;;;;;;5007320;28;20032;-76
2023/04/02 03:23:35;;;;;;;0.20;0.20;;;3.80;99.90;;;;;;5026051;28;20212;-76
2023/04/02 03:26:03;;;;;;;;;;;3.50;99.90;;;;;;5024297;28;20032;-76
2023/04/02 03:28:40;;;;;;;0.17;0.17;;;3.50;99.90;;;;;;5024017;28;20214;-75
2023/04/02 03:31:22;;;;;;;0.10;0.10;;;3.50;99.90;;;;;;5023694;28;20427;-75
2023/04/02 03:33:58;;;;;;;0.10;0.10;;;3.40;99.90;;;;;;5024091;28;20468;-75
2023/04/02 03:37:01;;;;;;;0.20;0.20;;;3.50;99.90;;;;;;5011499;28;20025;-76
2023/04/02 03:39:33;;;;;;;0.10;0.10;;;3.50;99.90;;;;;;4949411;29;20039;-74
2023/04/02 03:42:09;;;;;;;0.10;0.10;;;3.50;99.90;;;;;;4941930;29;20035;-75
2023/04/02 03:44:43;;;;;;;0.15;0.15;;;3.40;99.90;;;;;;4942986;29;20183;-75
2023/04/02 03:47:23;;;;;;;0.10;0.10;;;3.50;99.90;;;;;;4942138;29;20257;-75
2023/04/02 03:49:59;;;;;;;0.10;0.10;;;3.50;99.90;;;;;;4946542;29;20051;-75
2023/04/02 03:52:27;;;;;;;0.15;0.15;;;3.50;99.90;;;;;;4943837;29;20039;-75
2023/04/02 03:54:59;;;;;;;0.10;0.10;;;3.50;99.90;;;;;;4942832;29;20220;-75
2023/04/02 03:57:37;;;;;;;0.10;0.10;;;3.60;99.90;;;;;;4943138;29;20039;-75
2023/04/02 04:00:19;;;;;;;0.10;0.10;;;3.60;99.90;;;;;;4943677;29;20035;-80
2023/04/02 04:02:48;;;;;;;18.15;5.40;;;3.60;99.90;;;;;;4941129;29;20038;-75
2023/04/02 04:05:33;;;;;;;0.10;0.10;;;3.70;99.90;;;;;;4941940;29;20038;-76
2023/04/02 04:08:06;;;;;;;0.30;0.30;;;3.70;99.90;;;;;;4941273;28;20035;-76
2023/04/02 04:10:34;;;;;;;0.10;0.10;;;3.80;99.90;;;;;;4942454;29;20043;-75
2023/04/02 04:13:23;;;;;;;0.10;0.10;;;3.80;99.90;;;;;;4942280;29;20019;-75
2023/04/02 04:16:08;;;;;;;0.55;0.55;;;3.90;99.90;;;;;;4980279;28;20049;-76
2023/04/02 04:18:45;;;;;;;0.10;0.10;;;3.80;99.90;;;;;;5023239;28;20017;-75
2023/04/02 04:21:37;;;;;;;0.10;0.10;;;3.80;99.90;;;;;;5023516;28;20293;-75
2023/04/02 04:24:19;;;;;;;0.10;0.10;;;3.70;99.90;;;;;;5023523;28;20052;-74
2023/04/02 04:27:02;;;;;;;0.10;0.10;;;3.60;99.90;;;;;;5023468;28;20184;-75
2023/04/02 04:29:51;;;;;;;0.10;0.10;;;3.60;99.90;;;;;;5023467;28;20034;-75
2023/04/02 04:32:41;;;;;;;0.10;0.10;;;3.60;99.90;;;;;;5005343;28;20231;-75
2023/04/02 04:35:25;;;;;;;0.20;0.20;;;3.60;99.90;;;;;;5023372;28;20044;-75
2023/04/02 04:38:02;;;;;;;;;;;3.70;99.90;;;;;;5023311;28;20079;-75
2023/04/02 04:40:35;;;;;;;0.10;0.10;;;3.60;99.90;;;;;;5022691;28;19908;-75
2023/04/02 04:43:05;;;;;;;0.10;0.10;;;3.60;99.90;;;;;;5022404;28;20112;-75
2023/04/02 04:45:47;;;;;;;0.10;0.10;;;3.60;99.90;;;;;;5023029;28;20331;-75
2023/04/02 04:48:20;;;;;;;0.20;0.20;;;3.60;99.90;;;;;;5022444;28;20234;-75
2023/04/02 04:51:21;;;;;;;0.10;0.10;;;3.60;99.90;;;;;;5023655;28;20040;-76
2023/04/02 04:53:49;;;;;;;0.10;0.10;;;3.80;99.90;;;;;;5023755;28;20036;-75
2023/04/02 04:56:23;;;;;;;0.10;0.10;;;3.90;99.90;;;;;;5024955;28;20415;-75
2023/04/02 04:59:14;;;;;;;0.20;0.20;;;3.90;99.90;;;;;;5023519;28;20044;-76
2023/04/02 05:01:49;;;;;;;0.10;0.10;;;4.00;99.90;;;;;;5023107;28;20060;-75
2023/04/02 05:04:34;;;;;;;0.08;0.08;;;4.10;99.90;;;;;;5022766;28;20234;-75
2023/04/02 05:07:20;;;;;;;2.63;2.53;;;4.10;99.90;;;;;;5022720;28;20075;-75
2023/04/02 05:10:00;;;;;;;0.10;0.10;;;4.10;99.90;;;;;;5021776;28;20064;-75
2023/04/02 05:12:44;;;;;;;0.10;0.10;;;5.80;99.90;;;;;;5021761;28;20105;-75
2023/04/02 05:15:28;;;;;;;0.10;0.10;;;4.20;99.90;;;;;;5022084;28;20444;-75
2023/04/02 05:18:16;;;;;;;0.00;0.00;;;4.30;99.90;;;;;;5021952;28;20021;-75
2023/04/02 05:21:05;;;;;;;0.13;0.13;;;4.40;99.90;;;;;;5024059;28;20516;-75
2023/04/02 05:24:03;;;;;;;0.10;0.10;;;4.40;99.90;;;;;;5004686;28;20120;-76
2023/04/02 05:26:39;;;;;;;0.10;0.10;;;4.60;99.90;;;;;;5024485;28;20722;-77
2023/04/02 05:29:24;;;;;;;0.80;0.80;;;4.60;99.90;;;;;;5026559;28;20116;-76
2023/04/02 05:31:56;;;;;;;0.10;0.10;;;4.70;99.90;;;;;;5027264;28;20041;-76
2023/04/02 05:34:28;;;;;;;0.10;0.10;;;4.70;99.90;;;;;;5029432;28;20104;-76
2023/04/02 05:36:54;;;;;;;0.75;0.75;;;4.80;99.90;;;;;;5028448;28;20211;-75
2023/04/02 05:39:23;;;;;;;0.13;0.13;;;3.30;99.90;;;;;;5008870;28;20303;-75
2023/04/02 05:41:59;;;;;;;23.00;22.10;;;4.90;99.90;;;;;;5010306;28;20033;-75
2023/04/02 05:44:25;;;;;;;0.10;0.10;;;5.00;99.90;;;;;;5025593;28;20032;-75
2023/04/02 05:47:01;;;;;;;0.10;0.10;;;5.10;99.90;;;;;;5025712;28;20295;-75
2023/04/02 05:49:42;;;;;;;0.20;0.20;;;5.20;99.90;;;;;;5025088;28;20082;-75
2023/04/02 05:52:15;;;;;;;0.10;0.10;;;5.10;99.90;;;;;;5005476;28;20034;-75
2023/04/02 05:55:10;;;;;;;0.00;0.00;;;5.10;99.90;;;;;;5004903;28;20112;-75
2023/04/02 05:57:49;;;;;;;;;;;5.20;99.90;;;;;;4993335;28;20034;-75
2023/04/02 06:00:24;;;;;;;0.10;0.10;;;5.20;99.90;;;;;;5022001;28;19936;-75
2023/04/02 06:02:58;;;;;;;0.00;0.00;;;5.30;99.90;;;;;;5021895;28;20128;-75
2023/04/02 06:05:35;;;;;;;0.10;0.10;;;5.40;99.90;;;;;;5005289;28;20040;-76
2023/04/02 06:08:10;;;;;;;33.80;30.77;;;5.50;99.90;;;;;;5021947;28;20043;-75
2023/04/02 06:11:02;;;;;;;0.00;0.00;;;5.30;99.90;;;;;;5020650;28;20037;-75
2023/04/02 06:13:28;;;;;;;26.30;24.75;;;5.30;99.90;;;;;;5021261;28;20065;-75
2023/04/02 06:15:53;;;;;;;0.00;0.00;;;5.40;99.90;;;;;;5021785;28;20318;-76
2023/04/02 06:18:26;;;;;;;0.00;0.00;;;5.40;99.90;;;;;;5024281;28;20024;-75
2023/04/02 06:20:52;;;;;;;0.10;0.10;;;5.50;99.90;;;;;;5025977;28;20641;-75
2023/04/02 06:24:03;;;;;;;0.05;0.05;;;5.50;99.90;;;;;;5024192;28;20120;-75
2023/04/02 06:26:56;;;;;;;4.85;4.22;;;5.70;99.90;;;;;;5020729;28;20719;-75
2023/04/02 06:29:39;;;;;;;0.10;0.10;;;5.60;99.90;;;;;;5022471;28;20353;-75
2023/04/02 06:32:07;;;;;;;0.10;0.10;;;5.60;99.90;;;;;;5023486;28;20021;-75
2023/04/02 06:34:37;;;;;;;0.00;0.00;;;5.90;99.90;;;;;;5023884;28;20071;-75
2023/04/02 06:37:18;;;;;;;0.10;0.10;;;6.20;99.90;;;;;;5025808;28;20036;-75
2023/04/02 06:39:44;;;;;;;0.10;0.10;;;6.20;99.90;;;;;;5026599;28;20432;-75
2023/04/02 06:42:18;;;;;;;0.00;0.00;;;6.40;99.90;;;;;;5024360;28;20496;-75
2023/04/02 06:44:47;;;;;;;0.00;0.00;;;6.60;99.90;;;;;;5024199;28;20077;-76
2023/04/02 06:47:23;;;;;;;0.08;0.08;;;6.70;99.90;;;;;;5007107;28;20380;-75
2023/04/02 06:50:11;;;;;;;0.00;0.00;;;4.80;99.90;;;;;;5024376;28;20111;-75
2023/04/02 06:52:45;;;;;;;0.00;0.00;;;7.10;99.90;;;;;;5022339;28;20155;-76
2023/04/02 06:55:23;;;;;;;;;;;7.40;99.90;;;;;;5024411;28;20484;-76
2023/04/02 06:57:49;;;;;;;0.03;0.03;;;7.40;99.90;;;;;;5023717;28;19913;-77
2023/04/02 07:00:50;;;;;;;0.10;0.10;;;7.60;99.90;;;;;;5025096;28;20168;-76
2023/04/02 07:03:28;;;;;;;0.00;0.00;;;7.80;99.90;;;;;;4946908;29;20038;-75
2023/04/02 07:05:55;;;;;;;0.00;0.00;;;7.60;99.90;;;;;;4946827;29;20043;-75
2023/04/02 07:08:22;;;;;;;0.00;0.00;;;7.90;99.90;;;;;;4946780;29;20027;-75
2023/04/02 07:10:48;;;;;;;19.23;18.25;;;8.00;99.90;;;;;;4940513;29;20347;-75
2023/04/02 07:13:23;;;;;;;0.03;0.03;;;8.30;99.90;;;;;;4941932;29;20035;-75
2023/04/02 07:15:54;;;;;;;0.00;0.00;;;8.40;99.90;;;;;;4941471;29;20159;-75
2023/04/02 07:18:31;;;;;;;0.00;0.00;;;8.60;99.90;;;;;;4939399;29;20048;-76
2023/04/02 07:20:57;;;;;;;1.55;1.55;;;7.20;99.90;;;;;;4939848;29;20546;-75
2023/04/02 07:23:23;;;;;;;0.10;0.10;;;9.00;99.90;;;;;;4940811;29;20101;-76
2023/04/02 07:25:54;;;;;;;0.10;0.10;;;10.10;99.90;;;;;;4940165;29;20038;-75
2023/04/02 07:28:21;;;;;;;0.20;0.20;;;9.40;99.90;;;;;;4940841;29;20024;-77
2023/04/02 07:30:46;;;;;;;0.10;0.10;;;9.20;99.90;;;;;;4940550;29;20050;-78
2023/04/02 07:33:14;;;;;;;0.10;0.10;;;9.80;99.90;;;;;;4940445;29;20385;-76
2023/04/02 07:35:43;;;;;;;0.10;0.10;;;9.60;99.90;;;;;;4940047;29;20122;-76
2023/04/02 07:38:09;;;;;;;0.10;0.10;;;9.80;99.90;;;;;;5009722;28;20095;-76
2023/04/02 07:40:36;;;;;;;0.10;0.10;;;9.80;99.90;;;;;;5020806;28;20029;-75
2023/04/02 07:43:02;;;;;;;0.10;0.10;;;9.90;99.90;;;;;;5022707;28;20060;-76
2023/04/02 07:45:28;;;;;;;0.05;0.05;;;10.00;99.90;;;;;;5024081;28;20029;-76
2023/04/02 07:47:54;;;;;;;0.08;0.08;;;10.00;99.90;;;;;;5022943;28;20037;-76
2023/04/02 07:50:20;;;;;;;0.10;0.10;;;10.10;99.90;;;;;;5024298;28;20501;-76
2023/04/02 07:52:46;;;;;;;0.10;0.10;;;10.90;99.90;;;;;;5023223;28;20045;-76
2023/04/02 07:55:13;;;;;;;0.10;0.10;;;10.20;99.90;;;;;;5025002;28;20028;-77
2023/04/02 07:57:47;;;;;;;0.10;0.10;;;10.30;99.90;;;;;;5023869;28;20576;-77
2023/04/02 08:00:15;;;;;;;0.10;0.10;;;10.50;99.90;;;;;;5006771;28;20257;-77
2023/04/02 08:02:43;;;;;;;0.10;0.10;;;10.40;99.90;;;;;;5023046;28;20033;-77
2023/04/02 08:05:09;;;;;;;0.10;0.10;;;10.50;99.90;;;;;;5024604;28;20021;-76
2023/04/02 08:07:35;;;;;;;2.67;2.53;;;10.60;99.90;;;;;;5007069;28;20013;-77
2023/04/02 08:10:02;;;;;;;0.10;0.10;;;10.60;99.90;;;;;;5024902;28;20305;-78
2023/04/02 08:12:28;;;;;;;0.00;0.00;;;10.70;99.90;;;;;;5024877;28;20252;-76
2023/04/02 08:14:54;;;;;;;0.10;0.10;;;10.70;99.90;;;;;;5025191;28;20064;-77
2023/04/02 08:17:20;;;;;;;0.10;0.10;;;10.80;99.90;;;;;;5025093;28;20025;-76
2023/04/02 08:19:46;;;;;;;0.10;0.10;;;10.80;99.90;;;;;;5024534;28;20017;-77
2023/04/02 08:22:12;;;;;;;0.10;0.10;;;10.90;99.90;;;;;;5024091;28;20037;-76
2023/04/02 08:24:38;;;;;;;0.20;0.20;;;12.80;99.90;;;;;;5024504;28;20095;-76
2023/04/02 08:27:03;;;;;;;0.20;0.20;;;10.90;99.90;;;;;;5024060;28;20045;-76
2023/04/02 08:29:31;;;;;;;0.20;0.20;;;10.90;99.90;;;;;;5024899;28;20048;-76
2023/04/02 08:31:58;;;;;;;0.10;0.10;;;10.90;99.90;;;;;;5006501;28;20124;-77
2023/04/02 08:34:23;;;;;;;0.20;0.20;;;11.00;99.90;;;;;;5023436;28;20306;-74
2023/04/02 08:36:49;;;;;;;0.10;0.10;;;11.20;99.90;;;;;;5024319;28;20026;-76
2023/04/02 08:39:15;;;;;;;0.30;0.30;;;11.20;99.90;;;;;;5028156;28;20021;-76
2023/04/02 08:41:49;;;;;;;0.15;0.15;;;11.20;99.90;;;;;;5026254;28;20537;-76
2023/04/02 08:44:27;;;;;;;0.38;0.38;;;11.20;99.90;;;;;;5025337;28;20017;-75
2023/04/02 08:47:04;;;;;;;0.10;0.10;;;11.20;99.90;;;;;;5024626;28;20041;-76
2023/04/02 08:49:38;;;;;;;0.20;0.20;;;11.20;99.90;;;;;;5011105;28;20026;-76
2023/04/02 08:52:04;;;;;;;;;;;11.30;99.90;;;;;;5032317;28;20029;-76
2023/04/02 08:54:42;;;;;;;0.20;0.20;;;11.30;99.90;;;;;;5033298;28;19975;-76
2023/04/02 08:57:38;;;;;;;0.20;0.20;;;11.20;99.90;;;;;;5031169;28;20018;-77
2023/04/02 09:00:26;;;;;;;0.10;0.10;;;11.20;99.90;;;;;;5030784;28;20091;-77
2023/04/02 09:02:56;;;;;;;0.15;0.15;;;11.10;99.90;;;;;;5029037;28;20083;-76
2023/04/02 09:05:38;;;;;;;0.20;0.20;;;11.30;99.90;;;;;;5026840;28;20026;-76
2023/04/02 09:08:14;;;;;;;0.20;0.20;;;11.40;99.90;;;;;;5028071;28;20014;-76
2023/04/02 09:11:04;;;;;;;0.20;0.20;;;11.50;99.90;;;;;;5011641;28;20056;-77
2023/04/02 09:13:33;;;;;;;1.88;1.77;;;11.40;99.90;;;;;;5028640;28;20030;-76
2023/04/02 09:16:13;;;;;;;0.10;0.10;;;11.40;99.90;;;;;;5022985;28;20059;-76
2023/04/02 09:18:40;;;;;;;0.10;0.10;;;12.70;99.90;;;;;;5026250;28;20047;-75
2023/04/02 09:21:29;;;;;;;0.10;0.10;;;11.40;99.90;;;;;;5008264;28;20029;-75
2023/04/02 09:23:56;;;;;;;0.30;0.30;;;11.40;99.90;;;;;;4961398;28;20026;-76
2023/04/02 09:26:26;;;;;;;6.45;5.45;;;11.50;99.90;;;;;;4962095;28;20544;-75
2023/04/02 09:28:58;;;;;;;0.20;0.20;;;11.60;99.90;;;;;;4961533;28;20118;-75
2023/04/02 09:31:37;;;;;;;0.28;0.28;;;11.60;99.90;;;;;;4961377;28;20027;-76
2023/04/02 09:34:30;;;;;;;0.20;0.20;;;11.60;99.90;;;;;;4961271;28;20023;-73
2023/04/02 09:37:06;;;;;;;0.28;0.28;;;11.40;99.90;;;;;;4961157;28;20022;-75
2023/04/02 09:39:32;;;;;;;0.40;0.40;;;11.80;99.90;;;;;;4959437;28;20034;-75
2023/04/02 09:41:58;;;;;;;0.13;0.13;;;11.70;99.90;;;;;;4958379;28;20039;-77
2023/04/02 09:44:25;;;;;;;11.18;10.18;;;11.80;99.90;;;;;;4958431;28;20575;-76
2023/04/02 09:46:55;;;;;;;1.85;1.75;;;11.70;99.90;;;;;;4957912;28;20742;-76
2023/04/02 09:49:24;;;;;;;0.20;0.20;;;11.90;99.90;;;;;;4958787;28;20031;-75
2023/04/02 09:52:07;;;;;;;0.40;0.40;;;12.10;99.90;;;;;;4957759;28;20038;-75
2023/04/02 09:54:40;;;;;;;0.17;0.17;;;12.40;99.90;;;;;;4957787;28;20770;-76
2023/04/02 09:57:25;;;;;;;3.78;3.55;;;12.80;99.90;;;;;;4957266;28;20130;-75
2023/04/02 10:00:19;;;;;;;0.10;0.10;;;12.80;99.90;;;;;;4959656;28;20019;-76
2023/04/02 10:02:57;;;;;;;8.50;7.73;;;13.10;99.90;;;;;;5018718;28;20029;-76
2023/04/02 10:05:23;;;;;;;0.20;0.20;;;13.20;99.90;;;;;;5018553;28;20017;-75
2023/04/02 10:07:54;;;;;;;1.35;1.35;;;13.40;99.90;;;;;;5018040;28;20048;-76
2023/04/02 10:10:28;;;;;;;0.40;0.40;;;13.50;99.70;;;;;;5018443;28;20033;-83
2023/04/02 10:13:00;;;;;;;4.18;3.97;;;13.50;99.40;;;;;;5019630;28;20021;-76
2023/04/02 10:15:35;;;;;;;0.10;0.10;;;13.70;98.80;;;;;;4998381;28;20046;-75
2023/04/02 10:18:22;;;;;;;0.10;0.10;;;13.80;95.90;;;;;;4999587;28;20654;-81
2023/04/02 10:20:51;;;;;;;0.10;0.10;;;13.80;96.50;;;;;;4999053;28;20077;-75
2023/04/02 10:23:18;;;;;;;5.70;5.20;;;13.70;96.80;;;;;;4997470;28;20111;-78
2023/04/02 10:26:12;;;;;;;0.20;0.20;;;14.20;97.40;;;;;;4999184;28;20101;-78
2023/04/02 10:28:47;;;;;;;;;;;13.50;97.10;;;;;;4998253;28;20029;-82
2023/04/02 10:31:30;;;;;;;0.10;0.10;;;13.60;95.20;;;;;;4998761;28;20494;-75
2023/04/02 10:34:01;;;;;;;0.15;0.15;;;13.80;94.10;;;;;;4998548;28;20022;-74
2023/04/02 10:36:39;;;;;;;0.20;0.20;;;13.90;92.70;;;;;;4999145;28;20061;-78
2023/04/02 10:39:39;;;;;;;0.10;0.10;;;14.90;92.50;;;;;;4999181;28;20069;-73
2023/04/02 10:42:32;;;;;;;0.10;0.10;;;14.60;92.70;;;;;;4936590;29;20111;-74
2023/04/02 10:45:36;;;;;;;0.75;0.75;;;14.90;91.00;;;;;;4936763;29;20023;-74
2023/04/02 10:48:23;;;;;;;0.17;0.17;;;15.20;90.60;;;;;;4879856;29;20099;-74
2023/04/02 10:50:55;;;;;;;1.10;1.08;;;15.50;90.30;;;;;;4896526;29;20036;-76
2023/04/02 10:53:32;;;;;;;0.10;0.10;;;15.70;89.00;;;;;;4880603;29;20068;-76
2023/04/02 10:56:02;;;;;;;5.85;5.40;;;16.00;88.00;;;;;;4880572;29;20334;-74
2023/04/02 10:58:32;;;;;;;0.10;0.10;;;15.90;86.00;;;;;;4879516;29;20029;-74
2023/04/02 11:01:07;;;;;;;0.10;0.10;;;16.10;87.30;;;;;;4895967;29;20025;-76
2023/04/02 11:03:41;;;;;;;1.98;1.88;;;16.50;86.90;;;;;;4864639;29;20024;-76
2023/04/02 11:06:16;;;;;;;0.10;0.10;;;16.70;83.70;;;;;;4880294;29;20173;-77
2023/04/02 11:08:48;;;;;;;0.38;0.38;;;17.20;81.50;;;;;;4880494;29;20107;-80
2023/04/02 11:11:25;;;;;;;0.10;0.10;;;17.60;76.10;;;;;;4880544;29;20045;-76
2023/04/02 11:14:02;;;;;;;0.20;0.20;;;17.50;76.70;;;;;;4880205;29;20686;-75
2023/04/02 11:16:28;;;;;;;0.17;0.17;;;17.70;75.80;;;;;;4880248;29;20765;-76
2023/04/02 11:19:16;;;;;;;0.10;0.10;;;17.60;76.50;;;;;;4929659;28;20111;-76
2023/04/02 11:21:58;;;;;;;0.30;0.30;;;17.90;75.00;;;;;;4982522;28;20093;-76
2023/04/02 11:24:31;;;;;;;0.57;0.57;;;18.20;75.80;;;;;;5014059;28;20589;-78
2023/04/02 11:27:13;;;;;;;0.63;0.63;;;18.10;74.60;;;;;;4982721;28;20019;-75
2023/04/02 11:29:46;;;;;;;1.38;1.27;;;17.80;74.50;;;;;;4982208;28;20014;-76
2023/04/02 11:32:25;;;;;;;0.10;0.10;;;17.60;75.10;;;;;;4982824;28;20026;-77
2023/04/02 11:34:54;;;;;;;0.25;0.25;;;17.70;77.00;;;;;;4982739;28;20708;-76
2023/04/02 11:37:44;;;;;;;0.10;0.10;;;17.50;76.50;;;;;;4965860;28;20114;-76
2023/04/02 11:40:10;;;;;;;0.22;0.22;;;17.30;76.90;;;;;;5014162;28;20022;-75
2023/04/02 11:42:42;;;;;;;0.17;0.17;;;14.90;75.60;;;;;;4982305;28;20535;-79
2023/04/02 11:45:23;;;;;;;0.13;0.13;;;17.20;77.20;;;;;;5013583;28;20802;-75
2023/04/02 11:48:00;;;;;;;0.52;0.52;;;17.10;78.40;;;;;;4982317;28;20512;-75
2023/04/02 11:50:36;;;;;;;0.30;0.30;;;17.30;77.20;;;;;;4982244;28;20126;-81
2023/04/02 11:53:12;;;;;;;0.08;0.08;;;17.30;76.60;;;;;;4982219;28;20081;-75
2023/04/02 11:55:40;;;;;;;2.90;2.70;;;17.40;76.20;;;;;;4982064;28;20739;-77
2023/04/02 11:58:31;;;;;;;0.10;0.10;;;17.40;76.40;;;;;;4982594;28;20101;-77
2023/04/02 12:01:10;;;;;;;0.15;0.15;;;16.00;73.90;;;;;;4982098;28;20220;-80
2023/04/02 12:03:57;;;;;;;0.28;0.28;;;18.20;71.00;;;;;;4964415;28;20054;-76
2023/04/02 12:06:38;;;;;;;2.28;2.17;;;18.60;71.80;;;;;;4982174;28;20034;-77
2023/04/02 12:09:26;;;;;;;0.30;0.30;;;19.00;70.10;;;;;;4981707;28;20018;-76
2023/04/02 12:11:54;;;;;;;1.27;1.17;;;19.40;68.30;;;;;;4981892;28;20081;-76
2023/04/02 12:14:44;;;;;;;2.47;2.28;;;19.30;66.00;;;;;;4982082;28;20315;-80
2023/04/02 12:17:32;;;;;;;6.70;6.20;;;19.60;64.90;;;;;;5001073;28;20099;-77
2023/04/02 12:20:00;;;;;;;0.63;0.63;;;19.70;62.40;;;;;;5001577;28;20104;-77
2023/04/02 12:22:45;;;;;;;0.10;0.10;;;19.70;62.80;;;;;;4993006;28;20592;-77
2023/04/02 12:25:53;;;;;;;0.47;0.47;;;19.40;61.90;;;;;;5000931;28;20688;-81
2023/04/02 12:28:21;;;;;;;51.53;45.85;;;19.30;62.60;;;;;;4940027;29;20103;-77
2023/04/02 12:30:48;;;;;;;71.88;65.13;;;19.20;64.50;;;;;;4939358;28;20039;-82
2023/04/02 12:33:14;;;;;;;99.72;91.18;;;19.80;64.70;;;;;;4939767;29;20034;-75
2023/04/02 12:35:41;;;;;;;44.75;41.05;;;19.30;63.80;;;;;;4939258;29;20070;-80
2023/04/02 12:38:20;;;;;;;14.77;13.77;;;19.60;62.10;;;;;;4939805;29;20023;-74
2023/04/02 12:40:56;;;;;;;31.83;29.30;;;19.90;63.40;;;;;;4939769;29;20019;-76
2023/04/02 12:43:30;;;;;;;66.40;61.95;;;19.60;61.00;;;;;;4939841;29;20031;-78
2023/04/02 12:45:59;;;;;;;;;;;19.30;64.10;;;;;;4939406;29;20569;-77
2023/04/02 12:48:27;;;;;;;11.10;4.70;;;19.30;66.00;;;;;;4939298;29;19907;-76
2023/04/02 12:50:54;;;;;;;35.75;33.92;;;18.90;81.20;;;;;;4938902;29;20035;-75
2023/04/02 12:53:23;;;;;;;114.60;106.05;;;18.30;97.60;;;;;;4939401;29;20028;-82
2023/04/02 12:55:51;;;;;;;32.25;28.75;;;17.70;99.90;;;;;;4939829;29;20842;-77
2023/04/02 12:58:51;;;;;;;13.85;12.88;;;17.10;99.90;;;;;;4940115;29;20034;-75
2023/04/02 13:01:19;;;;;;;16.77;15.38;;;16.40;99.90;;;;;;4854528;29;20691;-75
2023/04/02 13:04:05;;;;;;;10.60;9.80;;;15.80;99.90;;;;;;4920691;29;20072;-77
2023/04/02 13:06:33;;;;;;;10.85;10.07;;;15.50;99.90;;;;;;4920856;29;20034;-82
2023/04/02 13:09:01;;;;;;;0.35;0.35;;;14.90;99.90;;;;;;4920624;29;20024;-73
2023/04/02 13:11:40;;;;;;;40.75;22.65;;;14.30;99.90;;;;;;4919230;29;20071;-75
2023/04/02 13:14:18;;;;;;;15.70;14.40;;;13.90;99.90;;;;;;4920808;29;20075;-76
2023/04/02 13:16:45;;;;;;;8.77;8.25;;;13.60;99.90;;;;;;4905026;29;20043;-74
2023/04/02 13:19:30;;;;;;;18.60;17.52;;;12.90;99.90;;;;;;4920531;29;20038;-83
2023/04/02 13:21:58;;;;;;;78.88;73.28;;;12.90;99.90;;;;;;4918787;29;20032;-74
2023/04/02 13:24:27;;;;;;;21.40;19.98;;;12.90;99.90;;;;;;4923005;29;20525;-75
2023/04/02 13:26:57;;;;;;;26.38;24.52;;;12.60;99.90;;;;;;4928004;29;20032;-78
2023/04/02 13:29:28;;;;;;;17.92;12.50;;;12.60;99.90;;;;;;4923274;29;20700;-75
2023/04/02 13:32:00;;;;;;;9.68;8.93;;;12.50;99.90;;;;;;4923419;29;20036;-74
2023/04/02 13:34:26;;;;;;;36.22;33.42;;;12.50;99.90;;;;;;4924916;29;20115;-75
2023/04/02 13:36:52;;;;;;;10.73;9.75;;;13.80;99.90;;;;;;4936160;28;20045;-75